Archival Weather

Heathrow

London, United Kingdom (EGLL)

Report from: Tuesday, September 19, 2023 7:20 AM BST
Current time: Tuesday, July 16, 2024 4:38 PM BST

Current weather – Weather history – Daily summaries
Weather forecast

Temperature15.0°C (59.0°F)
Dew point12.0°C (53.6°F)
Winds 12 kts (6.2 m/s, 13.8 mph) South-Southwest (210°)
Visibility6.2 mi. (10 km)
Clouds Few clouds 2,400 ft. (732 m)
Ceiling: Broken clouds 4,800 ft. (1,463 m)
Altimeter29.71 in.Hg (1006 mB)
Relative humidity82 %
Density altitude442 ft. (135 m)
Remarks Fully automated report
Flight conditions Visual Meteorological Conditions
Raw dataEGLL 190620Z AUTO 21012KT 9999 FEW024 BKN048 15/12 Q1006
An error has occurred. This application may no longer respond until reloaded. Reload 🗙